createdAt,value
2019-03-04T00:00:19.663Z,479.18
2019-03-04T00:01:19.679Z,474.26
2019-03-04T00:02:19.633Z,481.15
2019-03-04T00:03:19.616Z,476.89
2019-03-04T00:04:19.611Z,474.35
2019-03-04T00:05:19.583Z,480.15
2019-03-04T00:06:19.639Z,473.13
2019-03-04T00:07:19.582Z,474.89
2019-03-04T00:08:19.534Z,477.04
2019-03-04T00:09:19.557Z,482.45
2019-03-04T00:10:19.543Z,473.63
2019-03-04T00:11:19.558Z,480.23
2019-03-04T00:12:19.506Z,476.68
2019-03-04T00:13:19.520Z,483.95
2019-03-04T00:14:19.493Z,473.50
2019-03-04T00:15:19.497Z,473.82
2019-03-04T00:16:19.486Z,472.92
2019-03-04T00:17:19.481Z,473.80
2019-03-04T00:18:19.424Z,471.00
2019-03-04T00:19:19.441Z,476.44
2019-03-04T00:20:19.454Z,472.25
2019-03-04T00:21:19.445Z,479.00
2019-03-04T00:22:19.391Z,472.80
2019-03-04T00:23:19.427Z,473.96
2019-03-04T00:24:19.368Z,476.17
2019-03-04T00:25:19.377Z,477.83
2019-03-04T00:26:19.381Z,476.59
2019-03-04T00:27:19.376Z,472.87
2019-03-04T00:28:19.418Z,467.71
2019-03-04T00:29:19.359Z,475.63
2019-03-04T00:30:19.388Z,477.85
2019-03-04T00:31:19.308Z,471.34
2019-03-04T00:32:19.332Z,466.58
2019-03-04T00:33:19.276Z,471.29
2019-03-04T00:34:19.330Z,472.13
2019-03-04T00:35:19.252Z,475.25
2019-03-04T00:36:19.260Z,473.76
2019-03-04T00:37:19.274Z,475.14
2019-03-04T00:38:19.238Z,476.78
2019-03-04T00:39:19.242Z,475.42
2019-03-04T00:40:19.258Z,468.23
2019-03-04T00:41:19.217Z,473.99
2019-03-04T00:42:19.183Z,471.52
2019-03-04T00:43:19.178Z,476.07
2019-03-04T00:44:19.163Z,474.95
2019-03-04T00:45:19.180Z,479.85
2019-03-04T00:46:19.168Z,481.33
2019-03-04T00:47:19.206Z,476.87
2019-03-04T00:48:19.144Z,478.33
2019-03-04T00:49:19.136Z,475.46
2019-03-04T00:50:19.143Z,471.49
2019-03-04T00:51:19.156Z,476.56
2019-03-04T00:52:19.550Z,480.39
2019-03-04T00:53:19.089Z,475.59
2019-03-04T00:54:19.065Z,477.05
2019-03-04T00:55:19.041Z,477.50
2019-03-04T00:56:19.045Z,481.72
2019-03-04T00:57:19.064Z,472.46
2019-03-04T00:58:19.058Z,477.39
2019-03-04T00:59:19.026Z,471.37
2019-03-04T01:00:19.043Z,478.38
2019-03-04T01:01:18.978Z,472.32
2019-03-04T01:02:19.000Z,473.58
2019-03-04T01:03:18.996Z,483.88
2019-03-04T01:04:18.971Z,469.64
2019-03-04T01:05:18.939Z,474.72
2019-03-04T01:06:19.039Z,478.35
2019-03-04T01:07:18.996Z,470.45
2019-03-04T01:08:18.948Z,476.92
2019-03-04T01:09:19.034Z,470.62
2019-03-04T01:10:18.894Z,475.77
2019-03-04T01:11:19.017Z,469.12
2019-03-04T01:12:18.949Z,473.55
2019-03-04T01:13:18.934Z,469.24
2019-03-04T01:14:19.006Z,475.05
2019-03-04T01:15:18.998Z,474.77
2019-03-04T01:16:18.877Z,478.80
2019-03-04T01:17:18.846Z,472.05
2019-03-04T01:18:18.808Z,481.37
2019-03-04T01:19:18.830Z,479.36
2019-03-04T01:20:18.819Z,479.72
2019-03-04T01:21:18.778Z,479.93
2019-03-04T01:22:18.826Z,473.98
2019-03-04T01:23:18.780Z,477.84
2019-03-04T01:24:18.754Z,468.59
2019-03-04T01:25:18.807Z,473.90
2019-03-04T01:26:18.752Z,473.01
2019-03-04T01:27:18.729Z,474.89
2019-03-04T01:28:18.711Z,473.87
2019-03-04T01:29:18.879Z,474.40
2019-03-04T01:30:18.673Z,471.64
2019-03-04T01:31:18.703Z,473.08
2019-03-04T01:32:18.772Z,473.49
2019-03-04T01:33:18.671Z,475.69
2019-03-04T01:34:18.725Z,473.90
2019-03-04T01:35:18.630Z,471.07
2019-03-04T01:36:18.727Z,475.48
2019-03-04T01:37:18.636Z,476.04
2019-03-04T01:38:18.617Z,473.13
2019-03-04T01:39:18.626Z,468.97
2019-03-04T01:40:18.590Z,469.73
2019-03-04T01:41:18.572Z,473.61
2019-03-04T01:42:18.705Z,474.17
2019-03-04T01:43:18.580Z,470.58
2019-03-04T01:44:18.672Z,472.16
2019-03-04T01:45:18.593Z,472.84
2019-03-04T01:46:18.537Z,477.54
2019-03-04T01:47:18.557Z,472.91
2019-03-04T01:48:18.496Z,478.84
2019-03-04T01:49:18.493Z,469.86
2019-03-04T01:50:18.452Z,472.34
2019-03-04T01:51:18.519Z,468.91
2019-03-04T01:52:18.467Z,468.59
2019-03-04T01:53:18.457Z,469.80
2019-03-04T01:54:18.475Z,471.47
2019-03-04T01:55:18.473Z,472.07
2019-03-04T01:56:18.515Z,475.60
2019-03-04T01:57:18.439Z,470.26
2019-03-04T01:58:18.549Z,469.28
2019-03-04T01:59:18.382Z,473.66
2019-03-04T02:00:18.403Z,471.01
2019-03-04T02:01:18.388Z,472.91
2019-03-04T02:02:18.389Z,471.69
2019-03-04T02:03:18.350Z,473.15
2019-03-04T02:04:18.350Z,473.87
2019-03-04T02:05:18.347Z,472.74
2019-03-04T02:06:18.371Z,470.33
2019-03-04T02:07:18.353Z,473.92
2019-03-04T02:08:18.311Z,472.06
2019-03-04T02:09:18.645Z,471.80
2019-03-04T02:10:18.282Z,478.48
2019-03-04T02:11:18.252Z,474.29
2019-03-04T02:12:18.308Z,469.38
2019-03-04T02:13:18.273Z,481.04
2019-03-04T02:14:18.244Z,465.70
2019-03-04T02:15:18.208Z,471.58
2019-03-04T02:16:18.193Z,476.87
2019-03-04T02:17:18.182Z,476.04
2019-03-04T02:18:27.177Z,468.21
2019-03-04T02:19:18.162Z,476.93
2019-03-04T02:20:18.147Z,477.62
2019-03-04T02:21:18.118Z,472.51
2019-03-04T02:22:18.145Z,474.77
2019-03-04T02:23:18.128Z,477.71
2019-03-04T02:24:18.122Z,483.00
2019-03-04T02:25:18.097Z,477.73
2019-03-04T02:26:18.081Z,482.61
2019-03-04T02:27:18.071Z,478.57
2019-03-04T02:28:18.071Z,470.12
2019-03-04T02:29:18.069Z,478.52
2019-03-04T02:30:18.072Z,477.78
2019-03-04T02:31:18.034Z,473.10
2019-03-04T02:32:18.041Z,472.81
2019-03-04T02:33:18.034Z,471.83
2019-03-04T02:34:18.041Z,469.07
2019-03-04T02:35:18.009Z,471.34
2019-03-04T02:36:18.012Z,476.90
2019-03-04T02:37:17.986Z,473.26
2019-03-04T02:38:17.954Z,478.14
2019-03-04T02:39:18.009Z,478.66
2019-03-04T02:40:17.930Z,478.89
2019-03-04T02:41:17.969Z,477.90
2019-03-04T02:42:18.275Z,477.81
2019-03-04T02:43:17.910Z,473.00
2019-03-04T02:44:17.931Z,467.91
2019-03-04T02:45:17.871Z,473.86
2019-03-04T02:46:17.895Z,466.46
2019-03-04T02:47:17.873Z,478.86
2019-03-04T02:48:17.865Z,471.17
2019-03-04T02:49:17.877Z,477.71
2019-03-04T02:50:17.813Z,478.02
2019-03-04T02:51:17.857Z,487.72
2019-03-04T02:52:17.813Z,478.24
2019-03-04T02:53:17.814Z,477.69
2019-03-04T02:54:17.883Z,471.48
2019-03-04T02:55:17.800Z,471.16
2019-03-04T02:56:17.808Z,476.31
2019-03-04T02:57:17.809Z,472.01
2019-03-04T02:58:17.750Z,471.42
2019-03-04T02:59:17.755Z,477.22
2019-03-04T03:00:17.781Z,485.33
2019-03-04T03:01:17.729Z,471.23
2019-03-04T03:02:17.741Z,474.26
2019-03-04T03:03:18.591Z,476.95
2019-03-04T03:04:17.686Z,476.08
2019-03-04T03:05:17.655Z,477.54
2019-03-04T03:06:17.726Z,477.94
2019-03-04T03:07:17.656Z,477.27
2019-03-04T03:08:17.654Z,471.68
2019-03-04T03:09:17.646Z,492.97
2019-03-04T03:10:17.695Z,483.25
2019-03-04T03:11:17.619Z,472.25
2019-03-04T03:12:17.723Z,479.61
2019-03-04T03:13:17.606Z,472.42
2019-03-04T03:14:17.584Z,480.66
2019-03-04T03:15:17.585Z,472.61
2019-03-04T03:16:17.610Z,473.66
2019-03-04T03:17:17.543Z,480.02
2019-03-04T03:18:17.546Z,477.22
2019-03-04T03:19:17.527Z,484.87
2019-03-04T03:20:17.528Z,475.78
2019-03-04T03:21:17.511Z,480.12
2019-03-04T03:22:17.525Z,482.05
2019-03-04T03:23:17.560Z,478.98
2019-03-04T03:24:17.457Z,477.75
2019-03-04T03:25:17.491Z,482.24
2019-03-04T03:26:17.474Z,469.87
2019-03-04T03:27:17.482Z,473.37
2019-03-04T03:28:17.448Z,473.65
2019-03-04T03:29:18.099Z,476.42
2019-03-04T03:30:17.466Z,476.74
2019-03-04T03:31:17.455Z,476.77
2019-03-04T03:32:17.400Z,476.56
2019-03-04T03:33:17.406Z,473.68
2019-03-04T03:34:17.489Z,484.82
2019-03-04T03:35:17.394Z,481.81
2019-03-04T03:36:17.349Z,476.95
2019-03-04T03:37:17.348Z,472.54
2019-03-04T03:38:17.368Z,481.00
2019-03-04T03:39:17.371Z,470.89
2019-03-04T03:40:17.432Z,471.86
2019-03-04T03:41:17.306Z,478.07
2019-03-04T03:42:19.069Z,478.47
2019-03-04T03:43:17.358Z,484.91
2019-03-04T03:44:18.102Z,479.81
2019-03-04T03:45:17.412Z,478.91
2019-03-04T03:46:17.299Z,480.16
2019-03-04T03:47:17.236Z,471.47
2019-03-04T03:48:17.220Z,472.31
2019-03-04T03:49:17.229Z,475.58
2019-03-04T03:50:17.218Z,471.62
2019-03-04T03:51:17.227Z,475.57
2019-03-04T03:52:17.311Z,482.70
2019-03-04T03:53:17.351Z,476.98
2019-03-04T03:54:17.169Z,479.17
2019-03-04T03:55:17.179Z,473.22
2019-03-04T03:56:17.248Z,476.90
2019-03-04T03:57:17.144Z,478.62
2019-03-04T03:58:17.150Z,477.93
2019-03-04T03:59:17.103Z,481.11
2019-03-04T04:00:17.107Z,476.87
2019-03-04T04:01:17.090Z,471.13
2019-03-04T04:02:17.099Z,476.01
2019-03-04T04:03:17.056Z,481.08
2019-03-04T04:04:17.604Z,474.99
2019-03-04T04:05:17.026Z,481.88
2019-03-04T04:06:17.066Z,471.95
2019-03-04T04:07:17.040Z,474.25
2019-03-04T04:08:17.054Z,479.57
2019-03-04T04:09:17.141Z,476.77
2019-03-04T04:10:16.985Z,472.20
2019-03-04T04:11:17.021Z,477.30
2019-03-04T04:12:16.994Z,480.47
2019-03-04T04:13:17.010Z,477.60
2019-03-04T04:14:16.984Z,479.55
2019-03-04T04:15:17.608Z,481.36
2019-03-04T04:16:16.912Z,472.22
2019-03-04T04:17:16.928Z,484.90
2019-03-04T04:18:16.907Z,481.54
2019-03-04T04:19:16.905Z,480.17
2019-03-04T04:20:17.720Z,481.27
2019-03-04T04:21:16.923Z,479.36
2019-03-04T04:22:16.844Z,476.31
2019-03-04T04:23:16.883Z,475.16
2019-03-04T04:24:16.905Z,478.93
2019-03-04T04:25:16.840Z,474.86
2019-03-04T04:26:16.835Z,473.88
2019-03-04T04:27:16.805Z,480.14
2019-03-04T04:28:16.805Z,477.38
2019-03-04T04:29:16.807Z,476.46
2019-03-04T04:30:16.856Z,472.77
2019-03-04T04:31:16.795Z,480.49
2019-03-04T04:32:16.795Z,474.53
2019-03-04T04:33:16.775Z,480.87
2019-03-04T04:34:16.780Z,478.93
2019-03-04T04:35:16.733Z,479.05
2019-03-04T04:36:16.732Z,479.99
2019-03-04T04:37:16.702Z,478.80
2019-03-04T04:38:16.687Z,474.11
2019-03-04T04:39:17.612Z,487.30
2019-03-04T04:40:16.682Z,485.88
2019-03-04T04:41:16.663Z,475.99
2019-03-04T04:42:16.665Z,478.40
2019-03-04T04:43:16.620Z,474.83
2019-03-04T04:44:16.655Z,482.64
2019-03-04T04:45:16.679Z,482.21
2019-03-04T04:46:16.645Z,490.91
2019-03-04T04:47:16.619Z,477.96
2019-03-04T04:48:16.590Z,477.03
2019-03-04T04:49:16.576Z,475.19
2019-03-04T04:50:16.572Z,472.58
2019-03-04T04:51:16.636Z,477.76
2019-03-04T04:52:16.585Z,478.20
2019-03-04T04:53:16.519Z,481.72
2019-03-04T04:54:16.525Z,476.83
2019-03-04T04:55:16.554Z,479.80
2019-03-04T04:56:16.504Z,478.87
2019-03-04T04:57:16.540Z,480.32
2019-03-04T04:58:16.507Z,481.28
2019-03-04T04:59:16.531Z,481.95
2019-03-04T05:00:16.484Z,476.18
2019-03-04T05:01:16.469Z,475.78
2019-03-04T05:02:16.449Z,474.31
2019-03-04T05:03:16.490Z,486.56
2019-03-04T05:04:16.424Z,474.78
2019-03-04T05:05:16.439Z,476.50
2019-03-04T05:06:16.415Z,478.70
2019-03-04T05:07:16.386Z,482.61
2019-03-04T05:08:16.391Z,474.47
2019-03-04T05:09:16.407Z,480.24
2019-03-04T05:10:16.353Z,476.57
2019-03-04T05:11:16.367Z,479.72
2019-03-04T05:12:16.362Z,489.11
2019-03-04T05:13:16.387Z,474.34
2019-03-04T05:14:16.402Z,480.81
2019-03-04T05:15:16.331Z,484.70
2019-03-04T05:16:25.704Z,484.52
2019-03-04T05:17:16.284Z,485.80
2019-03-04T05:18:16.385Z,477.29
2019-03-04T05:19:16.303Z,476.05
2019-03-04T05:20:16.247Z,481.76
2019-03-04T05:21:16.244Z,484.39
2019-03-04T05:22:17.145Z,479.31
2019-03-04T05:23:25.278Z,482.64
2019-03-04T05:24:17.182Z,480.59
2019-03-04T05:25:25.292Z,476.53
2019-03-04T05:26:25.321Z,479.82
2019-03-04T05:27:16.184Z,485.73
2019-03-04T05:29:27.317Z,523.65
2019-03-04T05:31:44.656Z,520.06
2019-03-04T05:32:44.651Z,479.82
2019-03-04T05:33:44.685Z,483.18
2019-03-04T05:34:44.658Z,481.79
2019-03-04T05:35:44.614Z,478.51
2019-03-04T05:36:44.642Z,475.67
2019-03-04T05:37:44.606Z,485.94
2019-03-04T05:38:44.602Z,478.14
2019-03-04T05:39:44.598Z,496.44
2019-03-04T05:40:44.575Z,480.61
2019-03-04T05:41:44.577Z,479.66
2019-03-04T05:42:44.589Z,476.19
2019-03-04T05:43:44.560Z,482.21
2019-03-04T05:44:44.541Z,475.53
2019-03-04T05:45:44.530Z,485.49
2019-03-04T05:46:44.530Z,477.56
2019-03-04T05:47:44.523Z,483.69
2019-03-04T05:48:44.587Z,483.00
2019-03-04T05:49:44.526Z,485.20
2019-03-04T05:50:44.581Z,489.33
2019-03-04T05:51:44.462Z,491.31
2019-03-04T05:52:44.461Z,479.42
2019-03-04T05:53:44.523Z,488.55
2019-03-04T05:54:44.468Z,485.85
2019-03-04T05:55:44.430Z,483.55
2019-03-04T05:56:44.526Z,482.96
2019-03-04T05:57:44.402Z,482.27
2019-03-04T05:58:44.403Z,495.37
2019-03-04T05:59:44.392Z,490.85
2019-03-04T06:00:44.418Z,485.81
2019-03-04T06:01:44.369Z,484.39
2019-03-04T06:02:44.386Z,485.68
2019-03-04T06:03:44.356Z,485.21
2019-03-04T06:04:44.363Z,491.32
2019-03-04T06:05:44.390Z,487.72
2019-03-04T06:06:44.316Z,483.58
2019-03-04T06:07:44.362Z,483.20
2019-03-04T06:08:44.290Z,479.71
2019-03-04T06:09:44.285Z,488.27
2019-03-04T06:10:44.953Z,478.93
2019-03-04T06:11:44.274Z,486.09
2019-03-04T06:12:44.313Z,475.48
2019-03-04T06:13:44.252Z,480.75
2019-03-04T06:14:44.276Z,483.01
2019-03-04T06:15:44.226Z,482.97
2019-03-04T06:16:47.334Z,482.13
2019-03-04T06:17:44.204Z,486.81
2019-03-04T06:18:44.191Z,484.42
2019-03-04T06:19:44.183Z,489.76
2019-03-04T06:20:44.157Z,485.27
2019-03-04T06:21:44.195Z,494.80
2019-03-04T06:22:44.152Z,483.78
2019-03-04T06:23:44.130Z,479.83
2019-03-04T06:24:44.179Z,482.85
2019-03-04T06:25:44.151Z,487.63
2019-03-04T06:26:44.102Z,473.32
2019-03-04T06:27:44.091Z,479.21
2019-03-04T06:28:44.103Z,482.50
2019-03-04T06:29:44.072Z,475.49
2019-03-04T06:30:44.117Z,473.92
2019-03-04T06:31:44.220Z,475.35
2019-03-04T06:32:46.499Z,477.87
2019-03-04T06:33:44.153Z,489.72
2019-03-04T06:34:44.027Z,475.40
2019-03-04T06:35:44.017Z,485.66
2019-03-04T06:36:44.140Z,482.01
2019-03-04T06:37:44.011Z,475.37
2019-03-04T06:38:44.000Z,474.82
2019-03-04T06:39:43.959Z,480.23
2019-03-04T06:40:43.954Z,480.80
2019-03-04T06:41:43.952Z,480.48
2019-03-04T06:42:43.962Z,481.60
2019-03-04T06:43:44.163Z,479.30
2019-03-04T06:44:43.946Z,487.77
2019-03-04T06:45:43.906Z,482.40
2019-03-04T06:46:43.929Z,487.14
2019-03-04T06:47:43.929Z,475.01
2019-03-04T06:48:43.888Z,477.78
2019-03-04T06:49:43.876Z,477.54
2019-03-04T06:50:43.896Z,478.41
2019-03-04T06:51:43.897Z,483.96
2019-03-04T06:52:43.828Z,482.14
2019-03-04T06:53:43.834Z,478.06
2019-03-04T06:54:43.804Z,487.90
2019-03-04T06:55:43.798Z,476.70
2019-03-04T06:56:43.798Z,477.30
2019-03-04T06:57:43.797Z,478.16
2019-03-04T06:58:43.818Z,482.12
2019-03-04T06:59:43.827Z,478.57
2019-03-04T07:00:43.759Z,484.20
2019-03-04T07:01:43.732Z,477.56
2019-03-04T07:02:43.724Z,487.45
2019-03-04T07:03:43.763Z,480.17
2019-03-04T07:04:43.714Z,483.26
2019-03-04T07:05:43.676Z,482.16
2019-03-04T07:06:43.762Z,485.85
2019-03-04T07:07:43.676Z,481.62
2019-03-04T07:08:43.689Z,481.82
2019-03-04T07:09:43.670Z,487.75
2019-03-04T07:10:43.711Z,478.92
2019-03-04T07:11:43.650Z,477.23
2019-03-04T07:12:43.611Z,476.98
2019-03-04T07:13:43.602Z,478.65
2019-03-04T07:14:43.645Z,480.61
2019-03-04T07:15:44.460Z,484.52
2019-03-04T07:16:43.751Z,472.36
2019-03-04T07:17:43.569Z,474.41
2019-03-04T07:18:43.569Z,484.53
2019-03-04T07:19:43.544Z,481.15
2019-03-04T07:20:43.564Z,476.56
2019-03-04T07:21:43.518Z,481.67
2019-03-04T07:22:43.539Z,474.04
2019-03-04T07:23:43.587Z,478.02
2019-03-04T07:24:43.506Z,478.77
2019-03-04T07:25:43.524Z,478.88
2019-03-04T07:26:43.501Z,480.50
2019-03-04T07:27:44.404Z,481.42
2019-03-04T07:28:43.545Z,475.64
2019-03-04T07:29:43.439Z,485.95
2019-03-04T07:30:43.426Z,478.24
2019-03-04T07:31:43.431Z,479.63
2019-03-04T07:32:43.448Z,484.26
2019-03-04T07:33:43.430Z,475.38
2019-03-04T07:34:43.394Z,480.01
2019-03-04T07:35:43.397Z,486.21
2019-03-04T07:36:43.454Z,477.78
2019-03-04T07:37:43.345Z,483.33
2019-03-04T07:38:43.321Z,484.13
2019-03-04T07:39:43.318Z,476.89
2019-03-04T07:40:43.318Z,479.74
2019-03-04T07:41:43.327Z,477.87
2019-03-04T07:42:43.326Z,474.89
2019-03-04T07:43:43.305Z,480.48
2019-03-04T07:44:43.314Z,477.71
2019-03-04T07:45:43.298Z,484.96
2019-03-04T07:46:43.244Z,479.88
2019-03-04T07:47:43.277Z,479.54
2019-03-04T07:48:43.249Z,478.29
2019-03-04T07:49:43.228Z,477.39
2019-03-04T07:50:43.242Z,478.06
2019-03-04T07:51:43.242Z,478.36
2019-03-04T07:52:43.180Z,478.71
2019-03-04T07:53:46.354Z,483.10
2019-03-04T07:54:43.160Z,473.49
2019-03-04T07:55:43.157Z,479.50
2019-03-04T07:56:43.140Z,479.90
2019-03-04T07:57:43.139Z,475.45
2019-03-04T07:58:43.132Z,477.27
2019-03-04T07:59:43.158Z,480.96
2019-03-04T08:00:43.128Z,478.18
2019-03-04T08:01:43.113Z,479.73
2019-03-04T08:02:43.069Z,478.52
2019-03-04T08:03:43.086Z,475.85
2019-03-04T08:04:43.055Z,477.83
2019-03-04T08:05:43.082Z,479.42
2019-03-04T08:06:43.073Z,480.74
2019-03-04T08:07:43.028Z,480.09
2019-03-04T08:08:43.056Z,477.59
2019-03-04T08:09:43.033Z,475.60
2019-03-04T08:10:43.022Z,476.56
2019-03-04T08:11:42.986Z,476.23
2019-03-04T08:12:43.006Z,479.97
2019-03-04T08:13:43.001Z,477.07
2019-03-04T08:14:42.955Z,480.91
2019-03-04T08:15:42.951Z,476.68
2019-03-04T08:16:42.972Z,480.89
2019-03-04T08:17:42.914Z,475.66
2019-03-04T08:20:01.353Z,516.47
2019-03-04T08:21:01.316Z,482.18
2019-03-04T08:22:01.310Z,479.09
2019-03-04T08:23:01.302Z,479.71
2019-03-04T08:24:01.281Z,479.39
2019-03-04T08:25:01.297Z,480.97
2019-03-04T08:26:01.249Z,485.57
2019-03-04T08:27:01.313Z,478.13
2019-03-04T08:28:01.289Z,474.63
2019-03-04T08:29:01.240Z,473.20
2019-03-04T08:30:01.238Z,476.82
2019-03-04T08:31:01.244Z,476.50
2019-03-04T08:32:01.221Z,477.45
2019-03-04T08:33:01.192Z,479.41
2019-03-04T08:34:01.299Z,478.15
2019-03-04T08:35:01.189Z,474.95
2019-03-04T08:36:01.194Z,476.23
2019-03-04T08:37:01.179Z,474.70
2019-03-04T08:38:01.199Z,476.35
2019-03-04T08:39:01.151Z,480.18
2019-03-04T08:40:01.122Z,481.82
2019-03-04T08:41:01.113Z,478.68
2019-03-04T08:42:01.116Z,474.37
2019-03-04T08:43:01.133Z,477.77
2019-03-04T08:44:01.064Z,476.54
2019-03-04T08:45:01.080Z,471.98
2019-03-04T08:46:01.054Z,477.23
2019-03-04T08:47:01.060Z,477.65
2019-03-04T08:48:01.078Z,473.18
2019-03-04T08:49:01.065Z,475.23
2019-03-04T08:50:01.009Z,479.99
2019-03-04T08:51:02.338Z,474.90
2019-03-04T08:52:00.992Z,479.02
2019-03-04T08:53:00.985Z,475.19
2019-03-04T08:54:01.056Z,477.60
2019-03-04T08:55:00.984Z,479.17
2019-03-04T08:56:00.970Z,476.33
2019-03-04T08:57:04.098Z,475.16
2019-03-04T08:58:00.932Z,475.29
2019-03-04T08:59:00.918Z,478.16
2019-03-04T09:00:00.945Z,476.69
2019-03-04T09:01:01.149Z,475.02
2019-03-04T09:02:00.901Z,474.61
2019-03-04T09:03:00.902Z,476.33
2019-03-04T09:04:00.851Z,479.41
2019-03-04T09:05:00.887Z,475.90
2019-03-04T09:06:00.852Z,477.99
2019-03-04T09:07:00.862Z,476.79
2019-03-04T09:08:00.867Z,471.93
2019-03-04T09:09:00.832Z,476.53
2019-03-04T09:10:00.807Z,476.88
2019-03-04T09:11:00.793Z,470.71
2019-03-04T09:12:00.789Z,474.12
2019-03-04T09:13:00.774Z,474.01
2019-03-04T09:14:00.753Z,475.29
2019-03-04T09:15:00.768Z,480.76
2019-03-04T09:16:00.757Z,478.98
2019-03-04T09:17:00.725Z,475.32
2019-03-04T09:18:00.756Z,478.04
2019-03-04T09:19:00.719Z,480.41
2019-03-04T09:20:00.735Z,475.40
2019-03-04T09:21:00.709Z,479.16
2019-03-04T09:22:00.684Z,480.22
2019-03-04T09:23:00.666Z,481.03
2019-03-04T09:24:00.667Z,485.37
2019-03-04T09:25:00.643Z,476.33
2019-03-04T09:26:00.650Z,476.33
2019-03-04T09:27:00.630Z,479.36
2019-03-04T09:28:00.697Z,476.30
2019-03-04T09:29:00.744Z,477.63
2019-03-04T09:30:00.608Z,476.78
2019-03-04T09:31:00.616Z,479.61
2019-03-04T09:32:00.569Z,481.17
2019-03-04T09:33:00.573Z,477.78
2019-03-04T09:34:00.540Z,475.23
2019-03-04T09:35:00.536Z,478.16
2019-03-04T09:36:00.527Z,474.61
2019-03-04T09:37:00.501Z,475.63
2019-03-04T09:38:00.517Z,480.90
2019-03-04T09:39:00.515Z,479.64
2019-03-04T09:40:00.487Z,482.00
2019-03-04T09:41:00.483Z,475.17
2019-03-04T09:42:00.449Z,478.96
2019-03-04T09:43:00.472Z,481.57
2019-03-04T09:44:00.458Z,479.16
2019-03-04T09:45:00.414Z,475.83
2019-03-04T09:46:00.423Z,476.29
2019-03-04T09:47:00.458Z,478.24
2019-03-04T09:48:00.403Z,483.49
2019-03-04T09:49:00.385Z,483.01
2019-03-04T09:50:00.440Z,479.42
2019-03-04T09:51:00.410Z,475.37
2019-03-04T09:52:00.349Z,481.54
2019-03-04T09:53:00.338Z,470.61
2019-03-04T09:54:00.331Z,482.95
2019-03-04T09:55:00.330Z,480.75
2019-03-04T09:56:00.414Z,474.18
2019-03-04T09:57:00.292Z,485.12
2019-03-04T09:58:00.302Z,481.82
2019-03-04T09:59:00.299Z,480.94
2019-03-04T10:00:00.306Z,479.83
2019-03-04T10:01:00.264Z,480.50
2019-03-04T10:02:00.276Z,480.38
2019-03-04T10:03:00.260Z,477.47
2019-03-04T10:04:00.261Z,474.36
2019-03-04T10:05:00.322Z,485.54
2019-03-04T10:06:00.189Z,474.09
2019-03-04T10:07:00.251Z,483.74
2019-03-04T10:08:00.179Z,478.11
2019-03-04T10:09:00.178Z,481.69
2019-03-04T10:10:00.337Z,484.21
2019-03-04T10:11:00.173Z,480.68
2019-03-04T10:12:00.168Z,476.01
2019-03-04T10:13:00.121Z,476.24
2019-03-04T10:14:00.310Z,480.10
2019-03-04T10:15:08.027Z,487.13
2019-03-04T10:16:01.088Z,474.84
2019-03-04T10:17:00.108Z,482.68
2019-03-04T10:18:00.093Z,479.06
2019-03-04T10:19:00.073Z,482.39
2019-03-04T10:20:00.313Z,477.55
2019-03-04T10:21:00.051Z,483.80
2019-03-04T10:22:00.027Z,482.71
2019-03-04T10:23:00.018Z,482.09
2019-03-04T10:24:00.021Z,479.93
2019-03-04T10:25:00.000Z,480.48
2019-03-04T10:26:00.061Z,480.54
2019-03-04T10:26:59.962Z,474.31
2019-03-04T10:27:59.967Z,482.02
2019-03-04T10:29:02.137Z,479.02
2019-03-04T10:29:59.952Z,476.98
2019-03-04T10:30:59.962Z,483.09
2019-03-04T10:31:59.931Z,471.55
2019-03-04T10:32:59.921Z,477.56
2019-03-04T10:33:59.891Z,485.73
2019-03-04T10:34:59.883Z,477.35
2019-03-04T10:36:00.624Z,482.70
2019-03-04T10:36:59.909Z,484.15
2019-03-04T10:37:59.855Z,479.89
2019-03-04T10:38:59.860Z,478.15
2019-03-04T10:39:59.833Z,485.13
2019-03-04T10:40:59.859Z,488.00
2019-03-04T10:42:08.719Z,488.61
2019-03-04T10:42:59.814Z,476.77
2019-03-04T10:43:59.780Z,480.63
2019-03-04T10:44:59.812Z,464.19
2019-03-04T10:46:09.210Z,479.81
2019-03-04T10:46:59.751Z,476.48
2019-03-04T10:47:59.728Z,478.83
2019-03-04T10:48:59.739Z,482.21
2019-03-04T10:49:59.729Z,485.34
2019-03-04T10:50:59.716Z,492.00
2019-03-04T10:51:59.700Z,474.50
2019-03-04T10:52:59.706Z,474.37
2019-03-04T10:53:59.737Z,491.67
2019-03-04T10:54:59.686Z,465.09
2019-03-04T10:55:59.698Z,480.80
2019-03-04T10:56:59.797Z,493.42
2019-03-04T10:57:59.636Z,472.08
2019-03-04T10:58:59.727Z,498.43
2019-03-04T10:59:59.671Z,488.58
2019-03-04T11:00:59.615Z,455.11
2019-03-04T11:01:59.607Z,474.31
2019-03-04T11:02:59.620Z,488.29
2019-03-04T11:03:59.575Z,463.37
2019-03-04T11:04:59.624Z,469.22
2019-03-04T11:05:59.604Z,484.46
2019-03-04T11:06:59.604Z,485.99
2019-03-04T11:07:59.667Z,465.33
2019-03-04T11:08:59.578Z,498.46
2019-03-04T11:09:59.537Z,484.75
2019-03-04T11:10:59.526Z,484.59
2019-03-04T11:11:59.503Z,505.22
2019-03-04T11:12:59.490Z,467.46
2019-03-04T11:13:59.494Z,505.44
2019-03-04T11:14:59.471Z,465.41
2019-03-04T11:15:59.606Z,490.04
2019-03-04T11:17:00.179Z,512.39
2019-03-04T11:17:59.472Z,512.81
2019-03-04T11:18:59.468Z,495.54
2019-03-04T11:19:59.437Z,496.32
2019-03-04T11:20:59.469Z,575.54
2019-03-04T11:21:59.492Z,525.22
2019-03-04T11:22:59.396Z,526.20
2019-03-04T11:23:59.397Z,502.23
2019-03-04T11:24:59.370Z,474.29
2019-03-04T11:25:59.375Z,527.80
2019-03-04T11:26:59.479Z,516.50
2019-03-04T11:27:59.322Z,520.66
2019-03-04T11:28:59.385Z,532.03
2019-03-04T11:29:59.352Z,523.52
2019-03-04T11:30:59.280Z,525.60
2019-03-04T11:31:59.313Z,528.50
2019-03-04T11:32:59.345Z,544.84
2019-03-04T11:33:59.295Z,528.19
2019-03-04T11:34:59.264Z,543.07
2019-03-04T11:35:59.316Z,513.18
2019-03-04T11:36:59.244Z,531.93
2019-03-04T11:37:59.229Z,515.03
2019-03-04T11:38:59.208Z,529.86
2019-03-04T11:39:59.196Z,521.73
2019-03-04T11:40:59.286Z,537.76
2019-03-04T11:41:59.195Z,525.07
2019-03-04T11:42:59.179Z,533.18
2019-03-04T11:43:59.165Z,527.01
2019-03-04T11:44:59.166Z,527.98
2019-03-04T11:46:00.191Z,522.55
2019-03-04T11:47:00.178Z,528.45
2019-03-04T11:47:59.230Z,527.51
2019-03-04T11:48:59.127Z,517.88
2019-03-04T11:49:59.742Z,514.24
2019-03-04T11:50:59.158Z,520.97
2019-03-04T11:51:59.123Z,525.90
2019-03-04T11:52:59.087Z,534.64
2019-03-04T11:53:59.060Z,521.50
2019-03-04T11:54:59.060Z,533.93
2019-03-04T11:55:59.081Z,527.60
2019-03-04T11:56:59.056Z,533.77
2019-03-04T11:57:59.038Z,529.17
2019-03-04T11:58:58.987Z,521.98
2019-03-04T11:59:58.987Z,521.55
2019-03-04T12:00:59.390Z,513.93
2019-03-04T12:01:58.979Z,516.67
2019-03-04T12:02:59.026Z,516.92
2019-03-04T12:03:58.957Z,517.40
2019-03-04T12:04:59.024Z,528.84
2019-03-04T12:05:59.005Z,519.35
2019-03-04T12:06:59.015Z,517.73
2019-03-04T12:07:58.916Z,513.15
2019-03-04T12:08:58.895Z,512.36
2019-03-04T12:09:58.891Z,518.59
2019-03-04T12:10:58.858Z,517.48
2019-03-04T12:11:58.912Z,523.73
2019-03-04T12:12:58.920Z,520.02
2019-03-04T12:13:58.889Z,513.20
2019-03-04T12:14:58.836Z,503.24
2019-03-04T12:15:58.821Z,514.64
2019-03-04T12:16:58.838Z,528.90
2019-03-04T12:17:58.848Z,509.63
2019-03-04T12:18:58.796Z,513.09
2019-03-04T12:19:58.833Z,505.00
2019-03-04T12:20:58.808Z,501.27
2019-03-04T12:21:58.771Z,503.54
2019-03-04T12:22:58.769Z,521.17
2019-03-04T12:23:58.785Z,513.49
2019-03-04T12:24:58.743Z,521.66
2019-03-04T12:26:00.414Z,501.29
2019-03-04T12:26:58.802Z,519.07
2019-03-04T12:27:58.708Z,516.02
2019-03-04T12:28:58.725Z,507.76
2019-03-04T12:29:58.711Z,504.90
2019-03-04T12:30:58.690Z,514.93
2019-03-04T12:31:58.735Z,504.96